createdAt,value
2018-07-12T00:00:09.735Z,20.73
2018-07-12T00:02:38.249Z,18.53
2018-07-12T00:05:07.280Z,15.40
2018-07-12T00:07:35.843Z,18.00
2018-07-12T00:10:04.370Z,15.63
2018-07-12T00:12:32.955Z,17.20
2018-07-12T00:15:01.428Z,14.60
2018-07-12T00:17:29.916Z,16.57
2018-07-12T00:19:58.281Z,11.57
2018-07-12T00:22:26.832Z,18.63
2018-07-12T00:24:56.040Z,16.50
2018-07-12T00:27:24.657Z,17.10
2018-07-12T00:29:53.235Z,10.00
2018-07-12T00:32:21.819Z,16.87
2018-07-12T00:34:50.405Z,12.77
2018-07-12T00:37:18.837Z,17.03
2018-07-12T00:39:47.188Z,13.77
2018-07-12T00:42:15.947Z,13.63
2018-07-12T00:44:44.403Z,12.70
2018-07-12T00:47:12.907Z,13.57
2018-07-12T00:49:41.737Z,12.27
2018-07-12T00:52:10.417Z,13.33
2018-07-12T00:54:39.064Z,14.47
2018-07-12T00:57:07.751Z,13.67
2018-07-12T00:59:36.568Z,15.57
2018-07-12T01:02:05.122Z,15.83
2018-07-12T01:04:34.274Z,11.23
2018-07-12T01:07:03.104Z,11.77
2018-07-12T01:09:31.476Z,14.23
2018-07-12T01:12:00.272Z,11.90
2018-07-12T01:14:29.082Z,13.33
2018-07-12T01:16:58.226Z,14.17
2018-07-12T01:19:26.944Z,15.17
2018-07-12T01:21:56.343Z,16.50
2018-07-12T01:24:24.822Z,13.73
2018-07-12T01:26:53.505Z,13.53
2018-07-12T01:29:22.296Z,11.80
2018-07-12T01:31:50.797Z,15.97
2018-07-12T01:34:19.253Z,13.30
2018-07-12T01:36:48.140Z,17.07
2018-07-12T01:39:16.729Z,13.07
2018-07-12T01:41:47.011Z,15.93
2018-07-12T01:44:15.347Z,19.23
2018-07-12T01:46:44.326Z,14.53
2018-07-12T01:49:12.860Z,16.50
2018-07-12T01:51:41.482Z,14.37
2018-07-12T01:54:10.070Z,13.57
2018-07-12T01:56:38.758Z,15.47
2018-07-12T01:59:07.232Z,13.50
2018-07-12T02:01:35.921Z,14.73
2018-07-12T02:04:04.599Z,13.17
2018-07-12T02:06:33.183Z,13.97
2018-07-12T02:09:01.981Z,13.17
2018-07-12T02:11:30.758Z,12.87
2018-07-12T02:13:59.239Z,16.03
2018-07-12T02:16:27.710Z,13.13
2018-07-12T02:18:56.402Z,14.53
2018-07-12T02:21:25.089Z,15.10
2018-07-12T02:23:53.774Z,15.37
2018-07-12T02:26:22.260Z,15.43
2018-07-12T02:28:51.247Z,12.30
2018-07-12T02:31:20.048Z,12.50
2018-07-12T02:33:48.617Z,14.87
2018-07-12T02:36:17.727Z,11.57
2018-07-12T02:38:46.193Z,12.07
2018-07-12T02:41:15.480Z,21.60
2018-07-12T02:43:44.499Z,12.43
2018-07-12T02:46:13.286Z,14.00
2018-07-12T02:48:41.957Z,16.80
2018-07-12T02:51:10.441Z,16.20
2018-07-12T02:53:39.020Z,12.33
2018-07-12T02:56:07.599Z,15.17
2018-07-12T02:58:36.392Z,13.70
2018-07-12T03:01:05.769Z,11.33
2018-07-12T03:03:35.064Z,12.80
2018-07-12T03:06:03.777Z,10.73
2018-07-12T03:08:32.149Z,13.37
2018-07-12T03:11:00.938Z,15.30
2018-07-12T03:13:29.549Z,14.97
2018-07-12T03:15:58.102Z,16.33
2018-07-12T03:18:26.678Z,11.50
2018-07-12T03:20:55.277Z,18.20
2018-07-12T03:23:24.172Z,14.60
2018-07-12T03:25:52.668Z,16.33
2018-07-12T03:28:21.220Z,13.77
2018-07-12T03:30:49.801Z,15.60
2018-07-12T03:33:18.282Z,16.60
2018-07-12T03:35:47.182Z,13.70
2018-07-12T03:38:16.159Z,16.07
2018-07-12T03:40:44.750Z,11.10
2018-07-12T03:43:13.230Z,17.23
2018-07-12T03:45:41.716Z,13.50
2018-07-12T03:48:10.700Z,9.83
2018-07-12T03:50:40.112Z,12.53
2018-07-12T03:53:08.789Z,11.20
2018-07-12T03:55:37.409Z,11.77
2018-07-12T03:58:05.875Z,10.87
2018-07-12T04:00:34.534Z,10.20
2018-07-12T04:03:03.120Z,12.63
2018-07-12T04:05:31.816Z,13.33
2018-07-12T04:08:01.000Z,11.27
2018-07-12T04:10:29.589Z,9.93
2018-07-12T04:12:58.364Z,12.80
2018-07-12T04:15:28.077Z,12.60
2018-07-12T04:17:56.969Z,13.17
2018-07-12T04:20:26.120Z,11.30
2018-07-12T04:22:54.846Z,12.33
2018-07-12T04:25:23.431Z,10.27
2018-07-12T04:27:52.028Z,14.70
2018-07-12T04:30:20.702Z,13.47
2018-07-12T04:32:49.448Z,10.43
2018-07-12T04:35:18.150Z,10.67
2018-07-12T04:37:46.900Z,13.07
2018-07-12T04:40:15.492Z,16.30
2018-07-12T04:42:44.144Z,18.97
2018-07-12T04:45:12.811Z,11.83
2018-07-12T04:47:41.394Z,16.00
2018-07-12T04:50:10.664Z,10.80
2018-07-12T04:52:39.481Z,14.10
2018-07-12T04:55:08.164Z,13.23
2018-07-12T04:57:36.752Z,10.37
2018-07-12T05:00:05.332Z,12.27
2018-07-12T05:02:34.020Z,14.80
2018-07-12T05:05:02.703Z,16.60
2018-07-12T05:07:31.341Z,17.03
2018-07-12T05:09:59.968Z,13.63
2018-07-12T05:12:28.754Z,13.20
2018-07-12T05:14:57.478Z,11.73
2018-07-12T05:17:26.181Z,17.43
2018-07-12T05:19:54.775Z,18.90
2018-07-12T05:22:23.508Z,15.03
2018-07-12T05:24:52.655Z,15.93
2018-07-12T05:27:21.073Z,16.10
2018-07-12T05:29:49.549Z,12.73
2018-07-12T05:32:18.445Z,17.27
2018-07-12T05:34:47.616Z,14.67
2018-07-12T05:37:17.896Z,16.00
2018-07-12T05:39:48.138Z,14.13
2018-07-12T05:42:18.520Z,11.87
2018-07-12T05:44:48.793Z,13.83
2018-07-12T05:47:19.103Z,13.30
2018-07-12T05:49:49.823Z,21.80
2018-07-12T05:52:20.510Z,10.43
2018-07-12T05:54:51.216Z,17.23
2018-07-12T05:57:23.474Z,18.57
2018-07-12T05:59:53.945Z,26.47
2018-07-12T06:02:25.196Z,26.57
2018-07-12T06:04:55.689Z,20.93
2018-07-12T06:07:31.557Z,18.23
2018-07-12T06:10:01.963Z,18.67
2018-07-12T06:12:32.565Z,21.60
2018-07-12T06:15:03.029Z,24.97
2018-07-12T06:17:34.265Z,17.20
2018-07-12T06:20:05.266Z,25.27
2018-07-12T06:22:35.719Z,15.77
2018-07-12T06:25:06.931Z,15.97
2018-07-12T06:27:37.717Z,18.73
2018-07-12T06:30:08.421Z,13.23
2018-07-12T06:32:39.035Z,14.60
2018-07-12T06:35:09.387Z,21.00
2018-07-12T06:37:40.301Z,20.10
2018-07-12T06:40:11.007Z,17.37
2018-07-12T06:42:42.284Z,15.37
2018-07-12T06:45:12.811Z,24.30
2018-07-12T06:47:43.456Z,23.20
2018-07-12T06:50:14.055Z,21.53
2018-07-12T06:52:45.408Z,14.30
2018-07-12T06:55:16.208Z,16.23
2018-07-12T06:57:46.753Z,14.93
2018-07-12T07:00:17.170Z,12.00
2018-07-12T07:02:47.611Z,19.83
2018-07-12T07:05:18.073Z,17.57
2018-07-12T07:07:48.533Z,23.70
2018-07-12T07:10:19.023Z,15.23
2018-07-12T07:12:49.685Z,18.23
2018-07-12T07:15:20.144Z,19.90
2018-07-12T07:17:50.612Z,18.60
2018-07-12T07:20:21.112Z,15.30
2018-07-12T07:22:51.602Z,15.13
2018-07-12T07:25:22.960Z,22.87
2018-07-12T07:27:53.359Z,16.70
2018-07-12T07:30:24.194Z,13.33
2018-07-12T07:32:54.725Z,12.57
2018-07-12T07:35:25.277Z,11.23
2018-07-12T07:37:55.663Z,13.20
2018-07-12T07:40:26.072Z,15.77
2018-07-12T07:42:56.761Z,13.97
2018-07-12T07:45:27.081Z,17.60
2018-07-12T07:47:58.263Z,10.03
2018-07-12T07:50:28.936Z,17.83
2018-07-12T07:53:00.782Z,13.40
2018-07-12T07:55:31.289Z,15.43
2018-07-12T07:58:01.848Z,13.90
2018-07-12T08:00:32.543Z,15.00
2018-07-12T08:03:03.312Z,16.63
2018-07-12T08:05:33.972Z,23.67
2018-07-12T08:08:04.600Z,31.43
2018-07-12T08:10:35.117Z,16.03
2018-07-12T08:13:05.744Z,13.77
2018-07-12T08:15:36.503Z,13.80
2018-07-12T08:18:07.410Z,10.23
2018-07-12T08:20:37.922Z,9.10
2018-07-12T08:23:08.461Z,9.50
2018-07-12T08:25:38.960Z,16.57
2018-07-12T08:28:20.399Z,18.23
2018-07-12T08:30:51.952Z,21.23
2018-07-12T08:33:22.647Z,19.27
2018-07-12T08:35:53.347Z,11.80
2018-07-12T08:38:24.135Z,12.40
2018-07-12T08:40:55.131Z,14.93
2018-07-12T08:43:26.076Z,11.90
2018-07-12T08:45:57.145Z,18.50
2018-07-12T08:48:28.282Z,14.47
2018-07-12T08:50:59.341Z,13.20
2018-07-12T08:53:30.426Z,11.80
2018-07-12T08:56:01.325Z,8.87
2018-07-12T08:58:32.243Z,9.77
2018-07-12T09:01:04.261Z,14.50
2018-07-12T09:03:35.013Z,9.83
2018-07-12T09:06:05.914Z,12.40
2018-07-12T09:08:37.013Z,12.37
2018-07-12T09:11:08.232Z,15.87
2018-07-12T09:13:39.110Z,13.00
2018-07-12T09:16:10.726Z,12.37
2018-07-12T09:18:41.945Z,12.07
2018-07-12T09:21:14.923Z,8.60
2018-07-12T09:23:46.217Z,7.53
2018-07-12T09:26:18.174Z,12.97
2018-07-12T09:28:49.388Z,6.77
2018-07-12T09:31:20.558Z,8.97
2018-07-12T09:33:52.595Z,6.47
2018-07-12T09:36:26.010Z,7.27
2018-07-12T09:38:57.026Z,8.80
2018-07-12T09:41:28.111Z,6.70
2018-07-12T09:44:10.316Z,7.33
2018-07-12T09:46:42.244Z,6.73
2018-07-12T09:49:13.287Z,6.03
2018-07-12T09:51:45.421Z,6.37
2018-07-12T09:54:16.294Z,5.80
2018-07-12T09:56:57.829Z,10.33
2018-07-12T09:59:29.223Z,5.67
2018-07-12T10:02:04.929Z,5.47
2018-07-12T10:04:35.744Z,5.33
2018-07-12T10:07:11.976Z,5.83
2018-07-12T10:09:47.635Z,5.57
2018-07-12T10:12:23.369Z,7.40
2018-07-12T10:14:57.845Z,5.20
2018-07-12T10:17:33.532Z,5.97
2018-07-12T10:20:05.495Z,7.07
2018-07-12T10:22:35.962Z,6.60
2018-07-12T10:25:06.970Z,9.83
2018-07-12T10:27:37.492Z,8.63
2018-07-12T10:30:08.194Z,6.20
2018-07-12T10:32:38.913Z,10.00
2018-07-12T10:35:09.815Z,6.53
2018-07-12T10:37:40.524Z,9.27
2018-07-12T10:40:11.322Z,5.43
2018-07-12T10:42:41.996Z,11.63
2018-07-12T10:45:12.707Z,8.63
2018-07-12T10:47:43.421Z,6.90
2018-07-12T10:50:14.192Z,7.83
2018-07-12T10:52:44.985Z,6.27
2018-07-12T10:55:15.639Z,6.73
2018-07-12T10:57:46.447Z,7.97
2018-07-12T11:00:17.439Z,6.17
2018-07-12T11:02:48.185Z,5.93
2018-07-12T11:05:19.126Z,5.10
2018-07-12T11:07:50.163Z,6.70
2018-07-12T11:10:20.873Z,10.67
2018-07-12T11:13:02.300Z,6.93
2018-07-12T11:15:32.993Z,12.53
2018-07-12T11:18:03.664Z,5.77
2018-07-12T11:20:34.049Z,8.67
2018-07-12T11:23:04.767Z,6.77
2018-07-12T11:25:35.448Z,6.03
2018-07-12T11:28:06.419Z,6.93
2018-07-12T11:30:37.209Z,8.43
2018-07-12T11:33:49.601Z,7.63
2018-07-12T11:36:20.395Z,10.43
2018-07-12T11:38:51.092Z,5.83
2018-07-12T11:41:22.892Z,6.00
2018-07-12T11:43:53.557Z,6.63
2018-07-12T11:46:25.347Z,5.43
2018-07-12T11:48:56.047Z,8.20
2018-07-12T11:51:26.742Z,12.57
2018-07-12T11:53:57.543Z,11.00
2018-07-12T11:56:28.988Z,7.10
2018-07-12T11:58:59.868Z,8.63
2018-07-12T12:01:31.373Z,5.40
2018-07-12T12:04:03.004Z,6.20
2018-07-12T12:06:33.633Z,9.40
2018-07-12T12:09:05.491Z,11.33
2018-07-12T12:11:37.503Z,7.00
2018-07-12T12:14:08.334Z,7.33
2018-07-12T12:16:38.986Z,5.53
2018-07-12T12:19:09.808Z,7.90
2018-07-12T12:21:40.847Z,7.50
2018-07-12T12:24:11.666Z,7.40
2018-07-12T12:26:42.892Z,6.67
2018-07-12T12:29:13.922Z,6.17
2018-07-12T12:31:45.970Z,9.73
2018-07-12T12:34:16.813Z,10.00
2018-07-12T12:36:47.483Z,5.60
2018-07-12T12:39:18.111Z,7.20
2018-07-12T12:41:49.335Z,6.33
2018-07-12T12:44:20.109Z,5.90
2018-07-12T12:46:50.618Z,9.40
2018-07-12T12:49:21.468Z,11.10
2018-07-12T12:51:52.109Z,8.37
2018-07-12T12:54:22.637Z,6.33
2018-07-12T12:56:53.353Z,6.07
2018-07-12T12:59:24.094Z,7.40
2018-07-12T13:01:54.831Z,11.53
2018-07-12T13:04:25.724Z,7.13
2018-07-12T13:06:56.421Z,10.40
2018-07-12T13:09:27.069Z,6.40
2018-07-12T13:11:57.997Z,6.67
2018-07-12T13:14:28.722Z,9.57
2018-07-12T13:16:59.623Z,6.33
2018-07-12T13:19:30.373Z,9.20
2018-07-12T13:22:01.327Z,7.97
2018-07-12T13:24:32.062Z,7.17
2018-07-12T13:27:02.711Z,8.97
2018-07-12T13:29:33.266Z,7.97
2018-07-12T13:32:03.996Z,8.67
2018-07-12T13:34:34.788Z,8.57
2018-07-12T13:37:05.681Z,7.23
2018-07-12T13:39:36.668Z,15.87
2018-07-12T13:42:07.305Z,11.47
2018-07-12T13:44:37.980Z,6.90
2018-07-12T13:47:08.813Z,10.10
2018-07-12T13:49:39.640Z,6.63
2018-07-12T13:52:10.335Z,8.27
2018-07-12T13:54:40.765Z,8.17
2018-07-12T13:57:11.446Z,16.73
2018-07-12T13:59:42.241Z,7.43
2018-07-12T14:02:12.908Z,10.23
2018-07-12T14:04:43.591Z,7.27
2018-07-12T14:07:14.469Z,7.20
2018-07-12T14:09:45.065Z,6.90
2018-07-12T14:12:15.531Z,8.77
2018-07-12T14:14:46.263Z,7.07
2018-07-12T14:17:16.854Z,6.30
2018-07-12T14:19:47.673Z,8.67
2018-07-12T14:22:18.396Z,8.87
2018-07-12T14:24:49.082Z,7.77
2018-07-12T14:27:20.120Z,10.33
2018-07-12T14:29:50.785Z,11.07
2018-07-12T14:32:22.964Z,6.97
2018-07-12T14:34:54.522Z,8.50
2018-07-12T14:37:25.092Z,10.57
2018-07-12T14:39:55.770Z,6.80
2018-07-12T14:42:26.432Z,8.00
2018-07-12T14:44:57.097Z,13.33
2018-07-12T14:47:27.610Z,7.80
2018-07-12T14:49:58.218Z,8.30
2018-07-12T14:52:28.955Z,5.87
2018-07-12T14:54:59.721Z,7.13
2018-07-12T14:57:30.268Z,6.67
2018-07-12T15:00:00.844Z,6.93
2018-07-12T15:02:31.681Z,7.43
2018-07-12T15:05:02.494Z,7.03
2018-07-12T15:07:33.285Z,6.50
2018-07-12T15:10:03.871Z,6.47
2018-07-12T15:12:34.526Z,7.37
2018-07-12T15:15:05.317Z,10.53
2018-07-12T15:17:36.103Z,6.53
2018-07-12T15:20:06.746Z,6.03
2018-07-12T15:22:37.500Z,8.03
2018-07-12T15:25:08.437Z,9.47
2018-07-12T15:27:39.004Z,8.50
2018-07-12T15:30:09.675Z,7.33
2018-07-12T15:32:40.311Z,7.33
2018-07-12T15:35:11.328Z,7.80
2018-07-12T15:37:42.113Z,8.00
2018-07-12T15:40:13.153Z,9.40
2018-07-12T15:42:45.099Z,12.83
2018-07-12T15:45:15.615Z,9.37
2018-07-12T15:47:46.322Z,9.50
2018-07-12T15:50:21.336Z,6.43
2018-07-12T15:52:52.075Z,6.93
2018-07-12T15:55:22.872Z,6.40
2018-07-12T15:57:53.638Z,6.10
2018-07-12T16:00:24.841Z,6.27
2018-07-12T16:02:55.544Z,8.10
2018-07-12T16:05:26.389Z,8.73
2018-07-12T16:07:57.093Z,6.23
2018-07-12T16:10:27.690Z,7.57
2018-07-12T16:12:58.263Z,5.67
2018-07-12T16:15:29.030Z,6.17
2018-07-12T16:17:59.699Z,8.43
2018-07-12T16:20:30.400Z,6.93
2018-07-12T16:23:00.884Z,6.27
2018-07-12T16:25:31.534Z,7.83
2018-07-12T16:28:02.130Z,5.80
2018-07-12T16:30:33.106Z,7.23
2018-07-12T16:33:03.849Z,7.60
2018-07-12T16:35:34.445Z,5.63
2018-07-12T16:38:05.217Z,5.77
2018-07-12T16:40:35.707Z,5.97
2018-07-12T16:43:06.461Z,5.53
2018-07-12T16:45:37.490Z,6.87
2018-07-12T16:48:08.145Z,7.13
2018-07-12T16:50:38.628Z,7.23
2018-07-12T16:53:09.394Z,14.93
2018-07-12T16:55:40.921Z,6.37
2018-07-12T16:58:12.009Z,10.30
2018-07-12T17:00:42.611Z,23.53
2018-07-12T17:03:13.813Z,11.30
2018-07-12T17:05:44.594Z,10.00
2018-07-12T17:08:15.075Z,8.33
2018-07-12T17:10:45.770Z,12.53
2018-07-12T17:13:16.177Z,16.00
2018-07-12T17:15:46.680Z,7.93
2018-07-12T17:18:17.599Z,10.03
2018-07-12T17:20:48.297Z,13.93
2018-07-12T17:23:18.821Z,8.83
2018-07-12T17:25:49.605Z,10.43
2018-07-12T17:28:20.488Z,8.63
2018-07-12T17:30:50.995Z,11.93
2018-07-12T17:33:21.823Z,14.00
2018-07-12T17:35:52.335Z,8.40
2018-07-12T17:38:23.008Z,7.77
2018-07-12T17:40:53.704Z,13.80
2018-07-12T17:43:24.496Z,12.07
2018-07-12T17:45:58.704Z,13.00
2018-07-12T17:48:29.391Z,9.03
2018-07-12T17:51:00.073Z,9.70
2018-07-12T17:53:30.648Z,10.73
2018-07-12T17:56:01.295Z,8.50
2018-07-12T17:58:31.955Z,8.40
2018-07-12T18:01:03.384Z,10.07
2018-07-12T18:03:34.223Z,7.33
2018-07-12T18:06:05.012Z,9.30
2018-07-12T18:08:35.720Z,10.50
2018-07-12T18:11:07.249Z,9.50
2018-07-12T18:13:37.971Z,7.80
2018-07-12T18:16:08.700Z,11.53
2018-07-12T18:18:39.643Z,10.00
2018-07-12T18:21:10.160Z,7.60
2018-07-12T18:23:40.795Z,11.03
2018-07-12T18:26:11.684Z,7.60
2018-07-12T18:28:42.434Z,7.57
2018-07-12T18:31:13.209Z,7.67
2018-07-12T18:33:43.771Z,7.33
2018-07-12T18:36:14.355Z,9.03
2018-07-12T18:38:45.059Z,8.03
2018-07-12T18:41:15.617Z,8.20
2018-07-12T18:43:46.107Z,6.70
2018-07-12T18:46:16.916Z,7.70
2018-07-12T18:48:47.696Z,9.27
2018-07-12T18:51:18.447Z,7.73
2018-07-12T18:53:49.117Z,7.10
2018-07-12T18:56:19.800Z,7.87
2018-07-12T18:58:50.428Z,7.80
2018-07-12T19:01:21.040Z,7.23
2018-07-12T19:03:52.057Z,9.83
2018-07-12T19:06:22.818Z,7.57
2018-07-12T19:08:53.549Z,8.40
2018-07-12T19:11:24.399Z,11.33
2018-07-12T19:13:55.010Z,9.37
2018-07-12T19:16:25.654Z,8.33
2018-07-12T19:18:56.326Z,12.03
2018-07-12T19:21:27.055Z,9.93
2018-07-12T19:23:57.504Z,11.27
2018-07-12T19:26:28.250Z,8.80
2018-07-12T19:28:58.810Z,10.40
2018-07-12T19:31:29.467Z,10.33
2018-07-12T19:34:00.112Z,17.80
2018-07-12T19:36:30.846Z,11.67
2018-07-12T19:39:01.296Z,12.50
2018-07-12T19:41:32.078Z,11.83
2018-07-12T19:44:02.790Z,10.97
2018-07-12T19:46:33.533Z,14.07
2018-07-12T19:49:04.752Z,9.50
2018-07-12T19:51:35.438Z,10.63
2018-07-12T19:54:06.294Z,13.13
2018-07-12T19:56:37.191Z,10.17
2018-07-12T19:59:07.809Z,11.67
2018-07-12T20:01:39.051Z,11.40
2018-07-12T20:04:09.615Z,15.87
2018-07-12T20:06:40.184Z,11.43
2018-07-12T20:09:11.582Z,13.53
2018-07-12T20:11:42.633Z,13.63
2018-07-12T20:14:13.353Z,15.57
2018-07-12T20:16:44.063Z,16.00
2018-07-12T20:19:14.659Z,14.00
2018-07-12T20:21:45.214Z,18.70
2018-07-12T20:24:15.939Z,11.37
2018-07-12T20:26:46.630Z,13.43
2018-07-12T20:29:17.378Z,11.50
2018-07-12T20:31:48.296Z,15.77
2018-07-12T20:34:18.808Z,10.70
2018-07-12T20:36:49.543Z,15.57
2018-07-12T20:39:20.573Z,12.97
2018-07-12T20:41:51.696Z,14.80
2018-07-12T20:44:22.303Z,10.23
2018-07-12T20:46:53.071Z,13.67
2018-07-12T20:49:23.704Z,13.73
2018-07-12T20:51:54.303Z,14.20
2018-07-12T20:54:25.054Z,11.67
2018-07-12T20:56:55.895Z,10.77
2018-07-12T20:59:26.752Z,11.30
2018-07-12T21:01:57.291Z,12.37
2018-07-12T21:04:32.592Z,10.87
2018-07-12T21:07:03.885Z,12.83
2018-07-12T21:09:34.619Z,10.67
2018-07-12T21:12:05.231Z,16.47
2018-07-12T21:14:37.202Z,14.23
2018-07-12T21:17:08.144Z,14.60
2018-07-12T21:19:38.895Z,17.73
2018-07-12T21:22:09.427Z,19.27
2018-07-12T21:24:40.030Z,16.43
2018-07-12T21:27:10.738Z,12.17
2018-07-12T21:29:41.409Z,11.20
2018-07-12T21:32:11.990Z,13.43
2018-07-12T21:34:42.762Z,13.63
2018-07-12T21:37:13.510Z,12.13
2018-07-12T21:39:44.191Z,14.60
2018-07-12T21:42:15.150Z,12.90
2018-07-12T21:44:45.672Z,12.63
2018-07-12T21:47:16.380Z,13.87
2018-07-12T21:49:47.047Z,15.27
2018-07-12T21:52:17.811Z,14.90
2018-07-12T21:54:49.119Z,22.90
2018-07-12T21:57:19.790Z,18.83
2018-07-12T21:59:50.539Z,12.17
2018-07-12T22:02:21.064Z,15.53
2018-07-12T22:04:51.712Z,12.50
2018-07-12T22:08:26.622Z,18.50
2018-07-12T22:10:58.477Z,12.90
2018-07-12T22:13:30.343Z,12.20
2018-07-12T22:16:00.914Z,11.63
2018-07-12T22:18:31.837Z,14.63
2018-07-12T22:21:05.757Z,14.43
2018-07-12T22:23:36.404Z,13.13
2018-07-12T22:26:07.397Z,18.93
2018-07-12T22:28:38.089Z,17.13
2018-07-12T22:31:09.021Z,15.57
2018-07-12T22:33:40.504Z,16.27
2018-07-12T22:36:11.223Z,18.40
2018-07-12T22:38:41.905Z,16.33
2018-07-12T22:41:12.580Z,13.27
2018-07-12T22:43:43.264Z,10.40
2018-07-12T22:46:14.122Z,14.07
2018-07-12T22:48:44.799Z,11.47
2018-07-12T22:51:15.694Z,13.27
2018-07-12T22:53:46.530Z,16.77
2018-07-12T22:56:17.232Z,14.57
2018-07-12T22:58:47.899Z,15.07
2018-07-12T23:01:18.503Z,16.40
2018-07-12T23:03:49.222Z,12.50
2018-07-12T23:06:20.100Z,13.83
2018-07-12T23:08:50.588Z,12.50
2018-07-12T23:11:22.397Z,16.17
2018-07-12T23:13:52.828Z,11.77
2018-07-12T23:16:23.901Z,13.97
2018-07-12T23:18:54.542Z,13.30
2018-07-12T23:21:25.325Z,25.00
2018-07-12T23:23:56.203Z,19.67
2018-07-12T23:26:26.796Z,17.80
2018-07-12T23:28:57.352Z,13.93
2018-07-12T23:31:27.917Z,12.53
2018-07-12T23:33:58.685Z,15.17
2018-07-12T23:36:29.173Z,15.00
2018-07-12T23:39:01.611Z,20.43
2018-07-12T23:41:32.430Z,26.17
2018-07-12T23:44:03.193Z,15.43
2018-07-12T23:46:33.823Z,15.43
2018-07-12T23:49:04.553Z,16.47
2018-07-12T23:51:35.414Z,16.40
2018-07-12T23:54:06.311Z,15.97
2018-07-12T23:56:36.916Z,15.00
2018-07-12T23:59:07.589Z,15.10
